createdAt,value
2017-07-19T00:01:55.954Z,74.82
2017-07-19T00:04:25.798Z,74.66
2017-07-19T00:06:55.573Z,74.91
2017-07-19T00:09:25.343Z,75.64
2017-07-19T00:11:56.067Z,76.08
2017-07-19T00:14:25.901Z,76.34
2017-07-19T00:16:55.702Z,76.58
2017-07-19T00:19:25.502Z,76.57
2017-07-19T00:21:55.327Z,76.69
2017-07-19T00:24:25.113Z,76.31
2017-07-19T00:26:54.839Z,76.29
2017-07-19T00:29:24.776Z,76.15
2017-07-19T00:31:54.590Z,75.64
2017-07-19T00:34:24.906Z,76.05
2017-07-19T00:36:54.729Z,75.89
2017-07-19T00:39:24.521Z,75.62
2017-07-19T00:41:54.286Z,75.37
2017-07-19T00:44:29.624Z,75.88
2017-07-19T00:47:00.415Z,75.41
2017-07-19T00:49:30.137Z,76.02
2017-07-19T00:51:59.838Z,76.04
2017-07-19T00:54:29.599Z,74.91
2017-07-19T00:56:59.353Z,74.84
2017-07-19T00:59:29.162Z,75.81
2017-07-19T01:01:58.849Z,75.48
2017-07-19T01:04:28.749Z,75.42
2017-07-19T01:06:58.538Z,74.67
2017-07-19T01:09:28.282Z,75.25
2017-07-19T01:11:58.934Z,76.05
2017-07-19T01:14:28.754Z,76.20
2017-07-19T01:16:58.522Z,76.87
2017-07-19T01:19:28.249Z,76.87
2017-07-19T01:21:57.988Z,76.67
2017-07-19T01:24:27.764Z,77.36
2017-07-19T01:26:57.535Z,77.48
2017-07-19T01:29:27.495Z,77.32
2017-07-19T01:31:57.311Z,77.17
2017-07-19T01:34:27.129Z,77.08
2017-07-19T01:36:56.886Z,77.28
2017-07-19T01:39:26.658Z,76.91
2017-07-19T01:41:56.008Z,77.50
2017-07-19T01:44:25.807Z,77.24
2017-07-19T01:46:55.859Z,77.64
2017-07-19T01:49:25.638Z,77.56
2017-07-19T01:51:55.426Z,78.16
2017-07-19T01:54:25.149Z,77.58
2017-07-19T01:56:54.120Z,77.84
2017-07-19T01:59:23.895Z,78.33
2017-07-19T02:01:53.664Z,78.27
2017-07-19T02:04:23.686Z,77.97
2017-07-19T02:06:53.828Z,78.22
2017-07-19T02:09:23.528Z,77.69
2017-07-19T02:11:53.258Z,78.10
2017-07-19T02:14:23.440Z,78.00
2017-07-19T02:16:53.224Z,77.69
2017-07-19T02:19:22.998Z,77.88
2017-07-19T02:21:52.715Z,78.07
2017-07-19T02:24:22.558Z,78.72
2017-07-19T02:26:52.341Z,78.67
2017-07-19T02:29:22.071Z,77.59
2017-07-19T02:31:52.405Z,78.42
2017-07-19T02:34:22.221Z,79.48
2017-07-19T02:36:52.567Z,79.54
2017-07-19T02:39:22.519Z,79.64
2017-07-19T02:41:52.566Z,79.09
2017-07-19T02:44:22.308Z,78.68
2017-07-19T02:46:52.780Z,79.69
2017-07-19T02:49:23.241Z,79.68
2017-07-19T02:51:52.984Z,79.00
2017-07-19T02:54:22.778Z,78.71
2017-07-19T02:56:52.594Z,78.72
2017-07-19T02:59:22.371Z,78.49
2017-07-19T03:01:52.146Z,78.68
2017-07-19T03:04:22.031Z,79.51
2017-07-19T03:06:51.782Z,79.80
2017-07-19T03:09:21.664Z,79.55
2017-07-19T03:11:52.348Z,79.90
2017-07-19T03:14:22.107Z,78.82
2017-07-19T03:16:52.427Z,79.15
2017-07-19T03:19:22.939Z,77.87
2017-07-19T03:21:52.696Z,77.83
2017-07-19T03:24:22.510Z,77.36
2017-07-19T03:26:52.201Z,77.19
2017-07-19T03:29:21.986Z,77.58
2017-07-19T03:31:51.850Z,77.19
2017-07-19T03:34:21.561Z,77.10
2017-07-19T03:36:51.281Z,76.58
2017-07-19T03:39:20.991Z,77.06
2017-07-19T03:41:50.729Z,76.90
2017-07-19T03:44:20.420Z,77.07
2017-07-19T03:46:50.167Z,76.60
2017-07-19T03:49:19.951Z,76.45
2017-07-19T03:51:53.600Z,76.94
2017-07-19T03:54:26.566Z,76.43
2017-07-19T03:56:57.055Z,76.33
2017-07-19T03:59:26.783Z,76.78
2017-07-19T04:01:56.479Z,76.53
2017-07-19T04:04:26.238Z,77.28
2017-07-19T04:06:56.010Z,76.39
2017-07-19T04:09:25.776Z,75.76
2017-07-19T04:11:55.570Z,76.39
2017-07-19T04:14:25.992Z,74.58
2017-07-19T04:16:55.587Z,75.27
2017-07-19T04:19:25.414Z,74.07
2017-07-19T04:21:55.128Z,74.29
2017-07-19T04:24:24.834Z,74.68
2017-07-19T04:26:54.587Z,74.48
2017-07-19T04:29:24.369Z,74.77
2017-07-19T04:31:54.103Z,73.18
2017-07-19T04:34:23.917Z,72.94
2017-07-19T04:36:55.886Z,72.38
2017-07-19T04:39:27.814Z,72.21
2017-07-19T04:41:57.889Z,72.39
2017-07-19T04:44:27.679Z,71.72
2017-07-19T04:46:56.663Z,71.77
2017-07-19T04:49:26.480Z,71.55
2017-07-19T04:51:56.215Z,72.02
2017-07-19T04:54:30.935Z,72.01
2017-07-19T04:57:01.998Z,72.24
2017-07-19T04:59:31.620Z,70.59
2017-07-19T05:02:02.238Z,70.02
2017-07-19T05:04:32.070Z,70.92
2017-07-19T05:07:01.871Z,71.69
2017-07-19T05:09:31.661Z,70.37
2017-07-19T05:12:01.410Z,71.24
2017-07-19T05:14:31.171Z,71.47
2017-07-19T05:17:00.943Z,71.46
2017-07-19T05:19:30.726Z,70.84
2017-07-19T05:22:00.449Z,70.33
2017-07-19T05:24:30.259Z,70.65
2017-07-19T05:27:00.097Z,70.86
2017-07-19T05:29:29.912Z,70.28
2017-07-19T05:31:59.710Z,70.90
2017-07-19T05:34:29.537Z,71.17
2017-07-19T05:36:59.333Z,70.73
2017-07-19T05:39:29.075Z,70.48
2017-07-19T05:41:58.851Z,69.90
2017-07-19T05:44:28.605Z,70.48
2017-07-19T05:46:58.395Z,69.73
2017-07-19T05:49:28.257Z,69.01
2017-07-19T05:51:58.014Z,68.31
2017-07-19T05:54:29.175Z,67.14
2017-07-19T05:56:59.343Z,67.78
2017-07-19T05:59:29.714Z,66.65
2017-07-19T06:01:59.415Z,67.21
2017-07-19T06:04:29.168Z,67.10
2017-07-19T06:06:58.989Z,67.42
2017-07-19T06:09:28.779Z,67.87
2017-07-19T06:11:58.553Z,67.46
2017-07-19T06:14:28.298Z,66.76
2017-07-19T06:16:58.048Z,65.82
2017-07-19T06:19:27.844Z,66.21
2017-07-19T06:21:57.670Z,66.06
2017-07-19T06:24:27.466Z,66.04
2017-07-19T06:26:57.339Z,66.01
2017-07-19T06:29:27.098Z,65.15
2017-07-19T06:31:56.813Z,65.17
2017-07-19T06:34:26.549Z,65.64
2017-07-19T06:36:56.325Z,65.43
2017-07-19T06:39:26.158Z,64.88
2017-07-19T06:41:55.871Z,64.80
2017-07-19T06:44:25.586Z,64.31
2017-07-19T06:46:55.274Z,64.26
2017-07-19T06:49:25.060Z,64.32
2017-07-19T06:51:54.811Z,63.73
2017-07-19T06:54:24.346Z,64.21
2017-07-19T06:56:54.088Z,64.44
2017-07-19T06:59:23.887Z,64.26
2017-07-19T07:01:53.713Z,64.14
2017-07-19T07:04:23.491Z,63.60
2017-07-19T07:06:53.255Z,63.47
2017-07-19T07:09:23.117Z,63.35
2017-07-19T07:11:52.842Z,63.11
2017-07-19T07:14:22.590Z,63.20
2017-07-19T07:16:52.383Z,62.47
2017-07-19T07:19:22.291Z,62.17
2017-07-19T07:24:28.663Z,60.02
2017-07-19T07:26:58.421Z,59.85
2017-07-19T07:29:28.086Z,59.03
2017-07-19T07:31:57.851Z,58.72
2017-07-19T07:34:27.634Z,58.80
2017-07-19T07:36:57.424Z,57.22
2017-07-19T07:39:27.152Z,58.77
2017-07-19T07:41:56.887Z,58.04
2017-07-19T07:44:26.590Z,57.52
2017-07-19T07:46:56.307Z,57.28
2017-07-19T07:49:26.033Z,56.58
2017-07-19T07:51:55.833Z,56.40
2017-07-19T07:54:25.601Z,56.55
2017-07-19T07:56:55.362Z,56.75
2017-07-19T07:59:25.106Z,56.47
2017-07-19T08:01:54.887Z,55.76
2017-07-19T08:04:24.681Z,54.99
2017-07-19T08:06:54.397Z,54.74
2017-07-19T08:09:24.181Z,54.72
2017-07-19T08:11:53.926Z,54.26
2017-07-19T08:14:23.724Z,54.64
2017-07-19T08:16:53.500Z,52.70
2017-07-19T08:19:23.339Z,52.63
2017-07-19T08:21:53.125Z,51.97
2017-07-19T08:24:23.750Z,52.10
2017-07-19T08:26:55.703Z,52.57
2017-07-19T08:29:25.759Z,52.34
2017-07-19T08:31:55.556Z,51.95
2017-07-19T08:34:25.293Z,52.80
2017-07-19T08:36:55.796Z,53.14
2017-07-19T08:39:25.518Z,53.19
2017-07-19T08:41:55.355Z,53.09
2017-07-19T08:44:25.190Z,52.77
2017-07-19T08:46:54.937Z,53.56
2017-07-19T08:49:24.647Z,53.42
2017-07-19T08:51:54.363Z,53.17
2017-07-19T08:54:24.149Z,52.72
2017-07-19T08:56:53.948Z,52.27
2017-07-19T08:59:23.772Z,53.15
2017-07-19T09:01:53.581Z,52.28
2017-07-19T09:04:23.389Z,52.27
2017-07-19T09:06:53.225Z,51.67
2017-07-19T09:09:22.988Z,50.13
2017-07-19T09:11:53.425Z,50.79
2017-07-19T09:14:23.437Z,50.42
2017-07-19T09:16:53.162Z,50.11
2017-07-19T09:19:22.877Z,50.24
2017-07-19T09:21:52.597Z,50.73
2017-07-19T09:24:22.961Z,49.77
2017-07-19T09:26:53.347Z,49.54
2017-07-19T09:29:23.215Z,50.09
2017-07-19T09:31:52.986Z,49.60
2017-07-19T09:34:22.682Z,49.32
2017-07-19T09:36:52.426Z,49.70
2017-07-19T09:39:22.209Z,49.45
2017-07-19T09:41:52.061Z,49.97
2017-07-19T09:44:21.830Z,51.22
2017-07-19T09:46:52.238Z,49.84
2017-07-19T09:49:21.992Z,49.50
2017-07-19T09:51:51.727Z,49.58
2017-07-19T09:54:21.454Z,48.70
2017-07-19T09:56:51.270Z,48.29
2017-07-19T09:59:21.159Z,48.32
2017-07-19T10:01:50.874Z,48.05
2017-07-19T10:04:20.690Z,47.24
2017-07-19T10:06:50.426Z,47.28
2017-07-19T10:09:20.198Z,46.90
2017-07-19T10:11:50.004Z,47.19
2017-07-19T10:14:19.762Z,46.58
2017-07-19T10:16:49.518Z,48.20
2017-07-19T10:19:19.353Z,46.98
2017-07-19T10:21:49.067Z,46.59
2017-07-19T10:24:18.805Z,45.86
2017-07-19T10:26:48.539Z,46.73
2017-07-19T10:29:19.055Z,45.62
2017-07-19T10:31:48.826Z,45.74
2017-07-19T10:34:18.620Z,45.59
2017-07-19T10:36:48.992Z,45.91
2017-07-19T10:39:18.794Z,45.31
2017-07-19T10:41:48.542Z,46.01
2017-07-19T10:44:18.368Z,46.05
2017-07-19T10:46:48.095Z,46.28
2017-07-19T10:49:17.895Z,45.73
2017-07-19T10:51:47.633Z,46.68
2017-07-19T10:54:17.933Z,45.94
2017-07-19T10:56:47.707Z,46.16
2017-07-19T10:59:17.445Z,46.02
2017-07-19T11:01:47.170Z,45.51
2017-07-19T11:04:16.897Z,45.97
2017-07-19T11:06:46.632Z,45.99
2017-07-19T11:09:16.213Z,45.45
2017-07-19T11:11:46.101Z,45.32
2017-07-19T11:14:15.898Z,45.42
2017-07-19T11:16:45.662Z,46.11
2017-07-19T11:19:15.386Z,45.55
2017-07-19T11:21:45.113Z,44.56
2017-07-19T11:24:14.905Z,44.14
2017-07-19T11:26:44.676Z,43.99
2017-07-19T11:29:14.438Z,43.03
2017-07-19T11:31:46.119Z,42.72
2017-07-19T11:34:15.927Z,43.08
2017-07-19T11:36:45.622Z,42.36
2017-07-19T11:39:15.371Z,42.46
2017-07-19T11:41:45.151Z,42.05
2017-07-19T11:44:14.992Z,42.39
2017-07-19T11:46:44.790Z,42.57
2017-07-19T11:49:14.523Z,43.29
2017-07-19T11:51:44.287Z,42.54
2017-07-19T11:54:14.026Z,42.48
2017-07-19T11:56:43.766Z,42.96
2017-07-19T11:59:13.558Z,42.66
2017-07-19T12:01:43.302Z,42.88
2017-07-19T12:04:13.058Z,43.19
2017-07-19T12:06:42.838Z,43.75
2017-07-19T12:09:12.623Z,43.17
2017-07-19T12:11:42.314Z,41.49
2017-07-19T12:14:12.077Z,41.62
2017-07-19T12:16:41.877Z,42.21
2017-07-19T12:19:11.703Z,42.48
2017-07-19T12:21:41.479Z,42.86
2017-07-19T12:24:11.257Z,41.56
2017-07-19T12:26:41.044Z,41.24
2017-07-19T12:29:10.846Z,41.74
2017-07-19T12:31:40.679Z,41.86
2017-07-19T12:34:17.598Z,41.58
2017-07-19T12:36:47.301Z,42.35
2017-07-19T12:39:17.059Z,41.79
2017-07-19T12:41:46.800Z,41.02
2017-07-19T12:44:17.104Z,41.13
2017-07-19T12:46:46.798Z,41.13
2017-07-19T12:49:16.559Z,41.20
2017-07-19T12:51:46.322Z,41.79
2017-07-19T12:54:16.094Z,41.33
2017-07-19T12:56:45.861Z,41.20
2017-07-19T12:59:15.637Z,41.16
2017-07-19T13:01:45.387Z,41.93
2017-07-19T13:04:15.139Z,41.21
2017-07-19T13:06:44.971Z,41.02
2017-07-19T13:09:14.761Z,40.55
2017-07-19T13:11:44.594Z,40.35
2017-07-19T13:14:14.428Z,40.12
2017-07-19T13:16:44.248Z,39.89
2017-07-19T13:19:14.021Z,40.10
2017-07-19T13:21:43.725Z,39.68
2017-07-19T13:24:13.450Z,39.86
2017-07-19T13:26:43.274Z,39.92
2017-07-19T13:29:12.983Z,40.45
2017-07-19T13:31:42.797Z,40.77
2017-07-19T13:34:12.662Z,41.13
2017-07-19T13:36:42.426Z,41.01
2017-07-19T13:39:12.150Z,40.06
2017-07-19T13:41:41.976Z,39.76
2017-07-19T13:44:11.669Z,40.23
2017-07-19T13:46:41.708Z,39.34
2017-07-19T13:49:12.178Z,39.24
2017-07-19T13:51:42.184Z,39.29
2017-07-19T13:54:11.950Z,39.48
2017-07-19T13:56:41.693Z,38.97
2017-07-19T13:59:11.514Z,39.42
2017-07-19T14:01:41.285Z,40.17
2017-07-19T14:04:11.091Z,40.03
2017-07-19T14:06:40.890Z,40.08
2017-07-19T14:09:10.685Z,40.18
2017-07-19T14:11:40.542Z,40.29
2017-07-19T14:14:10.266Z,39.72
2017-07-19T14:16:40.091Z,39.33
2017-07-19T14:19:09.809Z,40.05
2017-07-19T14:21:39.638Z,40.47
2017-07-19T14:24:09.323Z,40.77
2017-07-19T14:26:39.183Z,40.46
2017-07-19T14:29:08.972Z,41.28
2017-07-19T14:31:38.731Z,41.26
2017-07-19T14:34:08.600Z,41.68
2017-07-19T14:36:38.358Z,42.13
2017-07-19T14:39:11.898Z,41.05
2017-07-19T14:41:42.759Z,41.41
2017-07-19T14:44:13.421Z,42.06
2017-07-19T14:46:46.280Z,40.64
2017-07-19T14:49:18.178Z,40.80
2017-07-19T14:51:50.080Z,41.03
2017-07-19T14:54:21.152Z,41.58
2017-07-19T14:56:52.540Z,41.10
2017-07-19T14:59:25.550Z,40.51
2017-07-19T15:01:56.542Z,40.23
2017-07-19T15:04:26.952Z,40.49
2017-07-19T15:06:57.192Z,39.99
2017-07-19T15:09:27.032Z,40.07
2017-07-19T15:11:57.273Z,41.02
2017-07-19T15:14:29.725Z,39.94
2017-07-19T15:17:02.564Z,40.28
2017-07-19T15:19:36.053Z,40.61
2017-07-19T15:22:07.046Z,40.77
2017-07-19T15:24:36.809Z,40.39
2017-07-19T15:27:06.774Z,39.55
2017-07-19T15:29:38.713Z,39.83
2017-07-19T15:32:12.095Z,40.28
2017-07-19T15:34:42.578Z,40.32
2017-07-19T15:37:12.367Z,40.16
2017-07-19T15:39:43.086Z,40.35
2017-07-19T15:42:18.719Z,40.20
2017-07-19T15:44:49.721Z,40.32
2017-07-19T15:47:19.519Z,39.55
2017-07-19T15:49:51.166Z,40.10
2017-07-19T15:52:21.911Z,39.52
2017-07-19T15:54:51.659Z,40.97
2017-07-19T15:57:21.319Z,39.98
2017-07-19T15:59:55.781Z,39.58
2017-07-19T16:02:27.079Z,40.24
2017-07-19T16:04:56.849Z,39.81
2017-07-19T16:07:26.652Z,39.93
2017-07-19T16:09:56.620Z,39.76
2017-07-19T16:12:27.061Z,40.18
2017-07-19T16:14:56.834Z,40.35
2017-07-19T16:17:26.734Z,40.72
2017-07-19T16:19:56.550Z,39.60
2017-07-19T16:22:26.913Z,39.59
2017-07-19T16:24:56.698Z,39.79
2017-07-19T16:27:27.061Z,40.27
2017-07-19T16:29:57.389Z,39.85
2017-07-19T16:32:27.747Z,39.85
2017-07-19T16:34:57.664Z,40.85
2017-07-19T16:37:27.387Z,40.42
2017-07-19T16:39:57.156Z,39.28
2017-07-19T16:42:26.940Z,39.41
2017-07-19T16:44:56.627Z,40.19
2017-07-19T16:47:26.523Z,41.27
2017-07-19T16:49:56.799Z,40.41
2017-07-19T16:52:27.091Z,39.90
2017-07-19T16:54:56.839Z,40.34
2017-07-19T16:57:26.799Z,40.53
2017-07-19T16:59:56.831Z,40.61
2017-07-19T17:02:26.954Z,40.19
2017-07-19T17:04:57.365Z,40.99
2017-07-19T17:07:29.689Z,41.65
2017-07-19T17:10:02.160Z,42.20
2017-07-19T17:12:34.913Z,41.23
2017-07-19T17:15:05.567Z,41.34
2017-07-19T17:17:37.183Z,41.53
2017-07-19T17:20:06.870Z,42.06
2017-07-19T17:22:36.617Z,42.04
2017-07-19T17:25:06.377Z,42.73
2017-07-19T17:27:36.119Z,42.04
2017-07-19T17:30:06.423Z,42.81
2017-07-19T17:32:36.255Z,42.93
2017-07-19T17:35:05.999Z,42.27
2017-07-19T17:37:35.780Z,42.90
2017-07-19T17:40:05.642Z,42.96
2017-07-19T17:42:35.394Z,42.91
2017-07-19T17:45:05.125Z,43.52
2017-07-19T17:47:40.167Z,43.37
2017-07-19T17:50:09.901Z,43.69
2017-07-19T17:52:39.694Z,43.72
2017-07-19T17:55:09.406Z,43.89
2017-07-19T17:57:39.169Z,44.01
2017-07-19T18:00:08.980Z,44.31
2017-07-19T18:02:38.776Z,44.70
2017-07-19T18:05:08.607Z,44.12
2017-07-19T18:07:38.282Z,44.75
2017-07-19T18:10:08.017Z,45.80
2017-07-19T18:12:37.818Z,45.56
2017-07-19T18:15:07.701Z,45.44
2017-07-19T18:17:37.449Z,45.54
2017-07-19T18:20:07.320Z,45.60
2017-07-19T18:22:37.081Z,45.31
2017-07-19T18:25:06.794Z,45.20
2017-07-19T18:27:36.865Z,45.50
2017-07-19T18:30:06.635Z,46.10
2017-07-19T18:32:36.448Z,46.29
2017-07-19T18:35:07.084Z,46.42
2017-07-19T18:37:37.142Z,46.63
2017-07-19T18:40:06.889Z,46.99
2017-07-19T18:42:36.597Z,47.37
2017-07-19T18:45:06.384Z,47.98
2017-07-19T18:47:36.154Z,47.99
2017-07-19T18:50:11.212Z,48.52
2017-07-19T18:52:40.990Z,47.91
2017-07-19T18:55:11.524Z,47.95
2017-07-19T18:57:41.980Z,47.87
2017-07-19T19:00:11.862Z,48.27
2017-07-19T19:02:42.156Z,48.47
2017-07-19T19:05:12.960Z,49.57
2017-07-19T19:07:42.797Z,49.19
2017-07-19T19:10:12.588Z,48.79
2017-07-19T19:12:42.341Z,49.54
2017-07-19T19:15:12.129Z,50.06
2017-07-19T19:17:41.894Z,49.44
2017-07-19T19:20:11.462Z,49.79
2017-07-19T19:22:41.374Z,49.91
2017-07-19T19:25:11.714Z,50.51
2017-07-19T19:27:42.062Z,50.40
2017-07-19T19:30:11.877Z,51.30
2017-07-19T19:32:42.118Z,51.44
2017-07-19T19:35:11.933Z,51.01
2017-07-19T19:37:41.796Z,51.65
2017-07-19T19:40:11.509Z,52.81
2017-07-19T19:42:41.430Z,54.45
2017-07-19T19:45:11.142Z,53.19
2017-07-19T19:47:41.078Z,52.85
2017-07-19T19:50:10.863Z,53.66
2017-07-19T19:52:45.694Z,54.40
2017-07-19T19:55:15.401Z,54.73
2017-07-19T19:57:45.099Z,52.34
2017-07-19T20:00:14.875Z,53.39
2017-07-19T20:02:44.475Z,52.54
2017-07-19T20:05:14.319Z,54.47
2017-07-19T20:07:44.094Z,51.53
2017-07-19T20:10:13.903Z,51.15
2017-07-19T20:12:43.677Z,50.68
2017-07-19T20:15:13.443Z,48.97
2017-07-19T20:17:43.343Z,47.80
2017-07-19T20:20:13.075Z,47.76
2017-07-19T20:22:42.762Z,47.89
2017-07-19T20:25:13.879Z,50.48
2017-07-19T20:27:43.945Z,55.48
2017-07-19T20:30:13.802Z,58.94
2017-07-19T20:32:43.625Z,62.48
2017-07-19T20:35:14.142Z,65.44
2017-07-19T20:37:43.838Z,66.87
2017-07-19T20:40:13.547Z,69.19
2017-07-19T20:42:43.299Z,70.38
2017-07-19T20:45:13.108Z,71.02
2017-07-19T20:47:43.571Z,72.80
2017-07-19T20:50:13.330Z,73.94
2017-07-19T20:52:43.062Z,72.89
2017-07-19T20:55:13.486Z,72.27
2017-07-19T20:57:43.294Z,73.77
2017-07-19T21:00:13.970Z,74.76
2017-07-19T21:02:43.736Z,74.81
2017-07-19T21:05:13.434Z,76.42
2017-07-19T21:07:43.187Z,75.38
2017-07-19T21:10:13.423Z,76.47
2017-07-19T21:12:43.293Z,77.45
2017-07-19T21:15:13.168Z,78.62
2017-07-19T21:17:43.246Z,77.88
2017-07-19T21:20:13.680Z,77.79
2017-07-19T21:22:42.681Z,80.33
2017-07-19T21:25:12.501Z,81.37
2017-07-19T21:27:42.402Z,82.02
2017-07-19T21:30:14.064Z,82.04
2017-07-19T21:32:43.905Z,82.36
2017-07-19T21:35:14.004Z,81.40
2017-07-19T21:37:46.775Z,81.12
2017-07-19T21:40:16.597Z,82.87
2017-07-19T21:42:46.320Z,80.92
2017-07-19T21:45:16.245Z,81.96
2017-07-19T21:47:46.132Z,80.62
2017-07-19T21:50:15.968Z,82.86
2017-07-19T21:52:45.780Z,84.08
2017-07-19T21:55:15.588Z,84.02
2017-07-19T21:57:45.547Z,84.26
2017-07-19T22:00:15.437Z,83.50
2017-07-19T22:02:45.247Z,84.77
2017-07-19T22:05:15.728Z,83.79
2017-07-19T22:07:46.520Z,82.59
2017-07-19T22:10:16.345Z,83.99
2017-07-19T22:12:46.769Z,83.84
2017-07-19T22:15:16.586Z,83.79
2017-07-19T22:17:46.492Z,83.02
2017-07-19T22:20:16.315Z,83.02
2017-07-19T22:22:46.809Z,83.45
2017-07-19T22:25:16.771Z,83.24
2017-07-19T22:27:46.689Z,85.08
2017-07-19T22:30:16.497Z,89.23
2017-07-19T22:32:46.313Z,88.35
2017-07-19T22:35:16.134Z,88.69
2017-07-19T22:37:45.940Z,88.84
2017-07-19T22:40:15.768Z,88.21
2017-07-19T22:42:45.622Z,86.38
2017-07-19T22:45:16.207Z,85.93
2017-07-19T22:47:46.882Z,87.65
2017-07-19T22:50:16.770Z,86.56
2017-07-19T22:52:46.577Z,87.00
2017-07-19T22:55:16.402Z,86.23
2017-07-19T22:57:46.208Z,85.89
2017-07-19T23:00:16.752Z,85.94
2017-07-19T23:02:47.582Z,86.66
2017-07-19T23:05:17.406Z,85.10
2017-07-19T23:07:47.217Z,85.29
2017-07-19T23:10:17.549Z,86.20
2017-07-19T23:12:47.356Z,87.68
2017-07-19T23:15:17.689Z,87.94
2017-07-19T23:17:47.487Z,86.50
2017-07-19T23:20:17.310Z,85.52
2017-07-19T23:22:47.133Z,87.52
2017-07-19T23:25:16.966Z,89.92
2017-07-19T23:27:46.866Z,89.06
2017-07-19T23:30:16.681Z,87.66
2017-07-19T23:32:46.992Z,87.86
2017-07-19T23:35:16.824Z,87.69
2017-07-19T23:37:46.651Z,88.70
2017-07-19T23:40:16.672Z,88.52
2017-07-19T23:42:46.590Z,88.20
2017-07-19T23:45:16.424Z,88.61
2017-07-19T23:47:46.968Z,88.43
2017-07-19T23:50:16.866Z,88.71
2017-07-19T23:52:47.882Z,88.27
2017-07-19T23:55:17.719Z,88.90
2017-07-19T23:57:47.716Z,88.26
